Terminal Aerodrome Forecast
Issued by NWS

Home | Current Version | Previous Version | Text Only | Print | Product List | Glossary On
Versions: 1 2 3 4 5 6 7 8 9 10 11 12 13 14 15
399
FTPA31 PHFO 250258 AAA
TAFHNY
TAF AMD
PHNY 250258Z 2503/2524 05017G28KT P6SM FEW015 FEW030
     FM251900 05025G38KT P6SM FEW030=

USA.gov is the U.S. government's official web portal to all federal, state and local government web resources and services.